Alpine Moment — VREV7 — position and weather

sailwx.info

Track history (hours):
 
Tides and Currents Weather Stations Pressure Air Temp Water Temp Dewpoint Dewpoint Depression Visibility Wind Speed Wind Dir Waves Ship Positions

Alpine Moment

Last reported at 2017-Jan-15 11:12 UTC. Time now 2017-Jan-24 06:58 UTC.
Position N 31°12' W 119°57'.
Warning: this ship's position is 8 days out of date.

Length 183 m; draft 10.9 m.

Type: Tanker. MMSI: 477185800.

Date/timePositionNaut miles runAvg speedWind from/ knotsBaromVisibWave heightAir tempDewpointWater temp
2017-Jan-15 11:12N 31°12' W 119°57'812.9
2017-Jan-15 10:33N 31°19' W 120°03'1312.5
2017-Jan-15 09:30N 31°30' W 120°11'1312.9
2017-Jan-15 08:29N 31°41' W 120°19'1312.9
2017-Jan-15 07:30N 31°51' W 120°28'20112.6
2017-Jan-14 15:33N 34°39' W 122°41'1812.6
2017-Jan-14 14:10N 34°53' W 122°53'812.5
2017-Jan-14 13:30N 35°00' W 122°59'1312.9
2017-Jan-14 12:28N 35°11' W 123°08'1412.9
2017-Jan-14 11:25N 35°23' W 123°15'1112.9
2017-Jan-14 10:33N 35°35' W 123°15'1713.0
2017-Jan-14 09:16N 35°51' W 123°14'913.1
2017-Jan-14 08:33N 36°00' W 123°13'1313.2
2017-Jan-14 07:33N 36°14' W 123°13'1313.0
2017-Jan-14 06:32N 36°27' W 123°12'1312.8
2017-Jan-14 05:33N 36°40' W 123°11'1312.7
2017-Jan-14 04:33N 36°52' W 123°11'1412.8
2017-Jan-14 03:26N 37°07' W 123°10'4310.9
2017-Jan-13 23:32N 37°44' W 122°44'1010.2
2017-Jan-13 22:33N 37°48' W 122°33'9 8.7
2017-Jan-13 21:33N 37°55' W 122°27'9 8.8
2017-Jan-13 20:33N 38°03' W 122°21'7 7.3
2017-Jan-13 19:33N 38°03' W 122°11'  
2017-Jan-10 15:33N 38°02' W 122°08'10 9.9
2017-Jan-10 14:33N 38°03' W 122°20'1110.6
2017-Jan-10 13:34N 37°53' W 122°25'9 9.4
2017-Jan-10 12:34N 37°45' W 122°20'0 0.3
2017-Jan-10 11:31N 37°45' W 122°20'0 0.1
2017-Jan-10 10:31N 37°45' W 122°20'0 0.0
2017-Jan-10 09:31N 37°45' W 122°20'0 0.0
2017-Jan-10 08:31N 37°45' W 122°20'0 0.0
2017-Jan-10 07:31N 37°45' W 122°20'0 0.2
2017-Jan-10 06:31N 37°45' W 122°20'0 0.0
2017-Jan-10 05:31N 37°45' W 122°20'0 0.0
2017-Jan-10 04:31N 37°45' W 122°20'0 0.1
2017-Jan-10 03:31N 37°45' W 122°20'0 0.1
2017-Jan-10 02:31N 37°45' W 122°20'0 0.1
2017-Jan-10 01:31N 37°45' W 122°20'0 0.1
2017-Jan-10 00:31N 37°45' W 122°20'0 0.1
2017-Jan-09 23:31N 37°45' W 122°20'0 0.0
2017-Jan-09 22:31N 37°45' W 122°20'0 0.0
2017-Jan-09 21:31N 37°45' W 122°20'0 0.0
2017-Jan-09 20:31N 37°45' W 122°20'0 0.0
2017-Jan-09 19:31N 37°45' W 122°20'0 0.0
2017-Jan-09 18:31N 37°45' W 122°20'0 0.1
2017-Jan-09 17:31N 37°45' W 122°20'0 0.2
2017-Jan-09 16:31N 37°45' W 122°20'0 0.0
2017-Jan-09 15:31N 37°45' W 122°20'0 0.0
2017-Jan-09 14:31N 37°45' W 122°20'0 0.0
2017-Jan-09 13:31N 37°45' W 122°20'0 0.0
2017-Jan-09 12:31N 37°45' W 122°20'0 0.1
2017-Jan-09 11:31N 37°45' W 122°20'0 0.1
2017-Jan-09 10:31N 37°45' W 122°20'0 0.0
2017-Jan-09 09:31N 37°45' W 122°20'0 0.0
2017-Jan-09 08:31N 37°45' W 122°20'0 0.0
2017-Jan-09 07:31N 37°45' W 122°20'0 0.0
2017-Jan-09 06:31N 37°45' W 122°20'0 0.1
2017-Jan-09 05:31N 37°45' W 122°20'0 0.1
2017-Jan-09 04:31N 37°45' W 122°20'0 0.0
2017-Jan-09 03:31N 37°45' W 122°20'0 0.0
2017-Jan-09 02:31N 37°45' W 122°20'0 0.1
2017-Jan-09 01:31N 37°45' W 122°20'0 0.1
2017-Jan-09 00:31N 37°45' W 122°20'0 0.1
2017-Jan-08 23:31N 37°45' W 122°20'0 0.0
2017-Jan-08 22:31N 37°45' W 122°20'0 0.0
2017-Jan-08 21:31N 37°45' W 122°20'0 0.1
2017-Jan-08 20:31N 37°45' W 122°20'0 0.0
2017-Jan-08 19:31N 37°45' W 122°20'0 0.0
2017-Jan-08 18:31N 37°45' W 122°20'0 0.1
2017-Jan-08 17:31N 37°45' W 122°20'0 0.0
2017-Jan-08 16:31N 37°45' W 122°20'0 0.0
2017-Jan-08 15:31N 37°45' W 122°20'0 0.2
2017-Jan-08 14:31N 37°45' W 122°20'0 0.1
2017-Jan-08 13:31N 37°45' W 122°20'0 0.0
2017-Jan-08 12:31N 37°45' W 122°20'0 0.2
2017-Jan-08 11:31N 37°45' W 122°20'0 0.1
2017-Jan-08 10:31N 37°45' W 122°20'0 0.0
2017-Jan-08 09:31N 37°45' W 122°20'0 0.0
2017-Jan-08 08:31N 37°45' W 122°20'0 0.0
2017-Jan-08 07:31N 37°45' W 122°20'0 0.0
2017-Jan-08 06:31N 37°45' W 122°20'0 0.0
2017-Jan-08 05:34N 37°45' W 122°20'0 0.1
2017-Jan-08 04:31N 37°45' W 122°20'0 0.0
2017-Jan-08 03:34N 37°45' W 122°20'0 0.1
2017-Jan-08 02:34N 37°45' W 122°20'0 0.1
2017-Jan-08 01:31N 37°45' W 122°20'0 0.0
2017-Jan-08 00:34N 37°45' W 122°20'0 0.1
2017-Jan-07 23:31N 37°45' W 122°20'0 0.1
2017-Jan-07 22:34N 37°45' W 122°20'0 0.0
2017-Jan-07 21:31N 37°45' W 122°20'0 0.0
2017-Jan-07 20:31N 37°45' W 122°20'0 0.0
2017-Jan-07 19:31N 37°45' W 122°20'0 0.0
2017-Jan-07 18:34N 37°45' W 122°20'0 0.0
2017-Jan-07 17:34N 37°45' W 122°20'0 0.0
2017-Jan-07 16:31N 37°45' W 122°20'0 0.1
2017-Jan-07 15:34N 37°45' W 122°20'0 0.2
2017-Jan-07 14:34N 37°45' W 122°20'0 0.0
2017-Jan-07 13:34N 37°45' W 122°20'0 0.0
2017-Jan-07 12:34N 37°45' W 122°20'0 0.0
2017-Jan-07 11:34N 37°45' W 122°20'0 0.0
2017-Jan-07 10:34N 37°45' W 122°20'0 0.0
2017-Jan-07 09:34N 37°45' W 122°20'0 0.1
2017-Jan-07 08:34N 37°45' W 122°20'0 0.1
2017-Jan-07 07:34N 37°45' W 122°20'0 0.0
2017-Jan-07 06:34N 37°45' W 122°20'0 0.0
2017-Jan-07 05:34N 37°45' W 122°20'0 0.0
2017-Jan-07 04:34N 37°45' W 122°20'0 0.1
2017-Jan-07 03:34N 37°45' W 122°20'0 0.0
2017-Jan-07 02:34N 37°45' W 122°20'0 0.0
2017-Jan-07 01:34N 37°45' W 122°20'0 0.0
2017-Jan-07 00:34N 37°45' W 122°20'0 0.0
2017-Jan-06 23:33N 37°45' W 122°20'0 0.0
2017-Jan-06 22:34N 37°45' W 122°20'0 0.2
2017-Jan-06 21:34N 37°45' W 122°20'0 0.0
2017-Jan-06 20:34N 37°45' W 122°20'0 0.0
2017-Jan-06 19:33N 37°45' W 122°20'0 0.0
2017-Jan-06 18:33N 37°45' W 122°20'0 0.0
2017-Jan-06 17:34N 37°45' W 122°20'5 4.5
2017-Jan-06 16:33N 37°49' W 122°23'1110.8
2017-Jan-06 15:33N 37°46' W 122°37'7 7.0
2017-Jan-06 14:30N 37°42' W 122°44'6 6.1
2017-Jan-06 13:33N 37°39' W 122°51'1111.3
2017-Jan-06 12:33N 37°33' W 123°03'8910.9
2017-Jan-06 04:27N 36°04' W 123°09'1010.8
2017-Jan-06 03:30N 35°54' W 123°08'2411.9
2017-Jan-06 01:28N 35°30' W 123°07'  
Track history (hours):
 
Tides and Currents Weather Stations Pressure Air Temp Water Temp Dewpoint Dewpoint Depression Visibility Wind Speed Wind Dir Waves Ship Positions

Alpine Moment

Last reported at 2017-Jan-15 11:12 UTC. Time now 2017-Jan-24 06:58 UTC.
Position N 31°12' W 119°57'.
Warning: this ship's position is 8 days out of date.

Length 183 m; draft 10.9 m.

Type: Tanker. MMSI: 477185800.

Date/timePositionNaut miles runAvg speedWind from/ knotsBaromVisibWave heightAir tempDewpointWater temp
2017-Jan-15 11:12N 31°12' W 119°57'812.9
2017-Jan-15 10:33N 31°19' W 120°03'1312.5
2017-Jan-15 09:30N 31°30' W 120°11'1312.9
2017-Jan-15 08:29N 31°41' W 120°19'1312.9
2017-Jan-15 07:30N 31°51' W 120°28'20112.6
2017-Jan-14 15:33N 34°39' W 122°41'1812.6
2017-Jan-14 14:10N 34°53' W 122°53'812.5
2017-Jan-14 13:30N 35°00' W 122°59'1312.9
2017-Jan-14 12:28N 35°11' W 123°08'1412.9
2017-Jan-14 11:25N 35°23' W 123°15'1112.9
2017-Jan-14 10:33N 35°35' W 123°15'1713.0
2017-Jan-14 09:16N 35°51' W 123°14'913.1
2017-Jan-14 08:33N 36°00' W 123°13'1313.2
2017-Jan-14 07:33N 36°14' W 123°13'1313.0
2017-Jan-14 06:32N 36°27' W 123°12'1312.8
2017-Jan-14 05:33N 36°40' W 123°11'1312.7
2017-Jan-14 04:33N 36°52' W 123°11'1412.8
2017-Jan-14 03:26N 37°07' W 123°10'4310.9
2017-Jan-13 23:32N 37°44' W 122°44'1010.2
2017-Jan-13 22:33N 37°48' W 122°33'9 8.7
2017-Jan-13 21:33N 37°55' W 122°27'9 8.8
2017-Jan-13 20:33N 38°03' W 122°21'7 7.3
2017-Jan-13 19:33N 38°03' W 122°11'  
2017-Jan-10 15:33N 38°02' W 122°08'10 9.9
2017-Jan-10 14:33N 38°03' W 122°20'1110.6
2017-Jan-10 13:34N 37°53' W 122°25'9 9.4
2017-Jan-10 12:34N 37°45' W 122°20'0 0.3
2017-Jan-10 11:31N 37°45' W 122°20'0 0.1
2017-Jan-10 10:31N 37°45' W 122°20'0 0.0
2017-Jan-10 09:31N 37°45' W 122°20'0 0.0
2017-Jan-10 08:31N 37°45' W 122°20'0 0.0
2017-Jan-10 07:31N 37°45' W 122°20'0 0.2
2017-Jan-10 06:31N 37°45' W 122°20'0 0.0
2017-Jan-10 05:31N 37°45' W 122°20'0 0.0
2017-Jan-10 04:31N 37°45' W 122°20'0 0.1
2017-Jan-10 03:31N 37°45' W 122°20'0 0.1
2017-Jan-10 02:31N 37°45' W 122°20'0 0.1
2017-Jan-10 01:31N 37°45' W 122°20'0 0.1
2017-Jan-10 00:31N 37°45' W 122°20'0 0.1
2017-Jan-09 23:31N 37°45' W 122°20'0 0.0
2017-Jan-09 22:31N 37°45' W 122°20'0 0.0
2017-Jan-09 21:31N 37°45' W 122°20'0 0.0
2017-Jan-09 20:31N 37°45' W 122°20'0 0.0
2017-Jan-09 19:31N 37°45' W 122°20'0 0.0
2017-Jan-09 18:31N 37°45' W 122°20'0 0.1
2017-Jan-09 17:31N 37°45' W 122°20'0 0.2
2017-Jan-09 16:31N 37°45' W 122°20'0 0.0
2017-Jan-09 15:31N 37°45' W 122°20'0 0.0
2017-Jan-09 14:31N 37°45' W 122°20'0 0.0
2017-Jan-09 13:31N 37°45' W 122°20'0 0.0
2017-Jan-09 12:31N 37°45' W 122°20'0 0.1
2017-Jan-09 11:31N 37°45' W 122°20'0 0.1
2017-Jan-09 10:31N 37°45' W 122°20'0 0.0
2017-Jan-09 09:31N 37°45' W 122°20'0 0.0
2017-Jan-09 08:31N 37°45' W 122°20'0 0.0
2017-Jan-09 07:31N 37°45' W 122°20'0 0.0
2017-Jan-09 06:31N 37°45' W 122°20'0 0.1
2017-Jan-09 05:31N 37°45' W 122°20'0 0.1
2017-Jan-09 04:31N 37°45' W 122°20'0 0.0
2017-Jan-09 03:31N 37°45' W 122°20'0 0.0
2017-Jan-09 02:31N 37°45' W 122°20'0 0.1
2017-Jan-09 01:31N 37°45' W 122°20'0 0.1
2017-Jan-09 00:31N 37°45' W 122°20'0 0.1
2017-Jan-08 23:31N 37°45' W 122°20'0 0.0
2017-Jan-08 22:31N 37°45' W 122°20'0 0.0
2017-Jan-08 21:31N 37°45' W 122°20'0 0.1
2017-Jan-08 20:31N 37°45' W 122°20'0 0.0
2017-Jan-08 19:31N 37°45' W 122°20'0 0.0
2017-Jan-08 18:31N 37°45' W 122°20'0 0.1
2017-Jan-08 17:31N 37°45' W 122°20'0 0.0
2017-Jan-08 16:31N 37°45' W 122°20'0 0.0
2017-Jan-08 15:31N 37°45' W 122°20'0 0.2
2017-Jan-08 14:31N 37°45' W 122°20'0 0.1
2017-Jan-08 13:31N 37°45' W 122°20'0 0.0
2017-Jan-08 12:31N 37°45' W 122°20'0 0.2
2017-Jan-08 11:31N 37°45' W 122°20'0 0.1
2017-Jan-08 10:31N 37°45' W 122°20'0 0.0
2017-Jan-08 09:31N 37°45' W 122°20'0 0.0
2017-Jan-08 08:31N 37°45' W 122°20'0 0.0
2017-Jan-08 07:31N 37°45' W 122°20'0 0.0
2017-Jan-08 06:31N 37°45' W 122°20'0 0.0
2017-Jan-08 05:34N 37°45' W 122°20'0 0.1
2017-Jan-08 04:31N 37°45' W 122°20'0 0.0
2017-Jan-08 03:34N 37°45' W 122°20'0 0.1
2017-Jan-08 02:34N 37°45' W 122°20'0 0.1
2017-Jan-08 01:31N 37°45' W 122°20'0 0.0
2017-Jan-08 00:34N 37°45' W 122°20'0 0.1
2017-Jan-07 23:31N 37°45' W 122°20'0 0.1
2017-Jan-07 22:34N 37°45' W 122°20'0 0.0
2017-Jan-07 21:31N 37°45' W 122°20'0 0.0
2017-Jan-07 20:31N 37°45' W 122°20'0 0.0
2017-Jan-07 19:31N 37°45' W 122°20'0 0.0
2017-Jan-07 18:34N 37°45' W 122°20'0 0.0
2017-Jan-07 17:34N 37°45' W 122°20'0 0.0
2017-Jan-07 16:31N 37°45' W 122°20'0 0.1
2017-Jan-07 15:34N 37°45' W 122°20'0 0.2
2017-Jan-07 14:34N 37°45' W 122°20'0 0.0
2017-Jan-07 13:34N 37°45' W 122°20'0 0.0
2017-Jan-07 12:34N 37°45' W 122°20'0 0.0
2017-Jan-07 11:34N 37°45' W 122°20'0 0.0
2017-Jan-07 10:34N 37°45' W 122°20'0 0.0
2017-Jan-07 09:34N 37°45' W 122°20'0 0.1
2017-Jan-07 08:34N 37°45' W 122°20'0 0.1
2017-Jan-07 07:34N 37°45' W 122°20'0 0.0
2017-Jan-07 06:34N 37°45' W 122°20'0 0.0
2017-Jan-07 05:34N 37°45' W 122°20'0 0.0
2017-Jan-07 04:34N 37°45' W 122°20'0 0.1
2017-Jan-07 03:34N 37°45' W 122°20'0 0.0
2017-Jan-07 02:34N 37°45' W 122°20'0 0.0
2017-Jan-07 01:34N 37°45' W 122°20'0 0.0
2017-Jan-07 00:34N 37°45' W 122°20'0 0.0
2017-Jan-06 23:33N 37°45' W 122°20'0 0.0
2017-Jan-06 22:34N 37°45' W 122°20'0 0.2
2017-Jan-06 21:34N 37°45' W 122°20'0 0.0
2017-Jan-06 20:34N 37°45' W 122°20'0 0.0
2017-Jan-06 19:33N 37°45' W 122°20'0 0.0
2017-Jan-06 18:33N 37°45' W 122°20'0 0.0
2017-Jan-06 17:34N 37°45' W 122°20'5 4.5
2017-Jan-06 16:33N 37°49' W 122°23'1110.8
2017-Jan-06 15:33N 37°46' W 122°37'7 7.0
2017-Jan-06 14:30N 37°42' W 122°44'6 6.1
2017-Jan-06 13:33N 37°39' W 122°51'1111.3
2017-Jan-06 12:33N 37°33' W 123°03'8910.9
2017-Jan-06 04:27N 36°04' W 123°09'1010.8
2017-Jan-06 03:30N 35°54' W 123°08'2411.9
2017-Jan-06 01:28N 35°30' W 123°07'  

Dump ship's entire track history